createdAt,value
2022-09-13T00:05:46.566Z,3.10
2022-09-13T00:29:12.803Z,3.42
2022-09-13T00:40:09.006Z,3.58
2022-09-13T00:42:37.680Z,3.30
2022-09-13T00:45:11.644Z,3.95
2022-09-13T00:47:41.719Z,3.55
2022-09-13T00:50:21.651Z,3.72
2022-09-13T01:16:35.495Z,4.40
2022-09-13T01:19:03.456Z,3.95
2022-09-13T01:21:54.145Z,3.92
2022-09-13T01:40:05.849Z,4.22
2022-09-13T03:41:19.031Z,5.40
2022-09-13T04:34:38.168Z,6.40
2022-09-13T04:39:53.893Z,7.30
2022-09-13T04:42:52.659Z,6.95
2022-09-13T04:45:22.658Z,7.85
2022-09-13T04:47:54.901Z,7.35
2022-09-13T04:53:11.482Z,8.55
2022-09-13T05:38:04.851Z,13.13
2022-09-13T05:43:26.321Z,14.23
2022-09-13T09:47:29.562Z,0.63
2022-09-13T09:50:14.501Z,0.88
2022-09-13T09:52:58.154Z,1.00
2022-09-13T09:55:36.206Z,0.90
2022-09-13T09:58:14.183Z,1.00
2022-09-13T10:01:27.576Z,1.10
2022-09-13T10:04:17.941Z,0.85
2022-09-13T10:06:47.433Z,0.90
2022-09-13T10:09:16.815Z,0.63
2022-09-13T10:11:50.519Z,0.77
2022-09-13T10:14:41.776Z,1.23
2022-09-13T10:17:28.267Z,0.60
2022-09-13T10:20:01.649Z,0.90
2022-09-13T10:22:56.191Z,0.75
2022-09-13T10:59:41.267Z,1.00
2022-09-13T11:03:12.537Z,0.63
2022-09-13T11:06:13.686Z,0.77
2022-09-13T11:09:08.625Z,0.75
2022-09-13T11:14:52.885Z,0.80
2022-09-13T11:17:57.956Z,0.88
2022-09-13T11:20:40.438Z,0.80
2022-09-13T11:23:30.746Z,1.00
2022-09-13T11:26:01.840Z,1.10
2022-09-13T11:29:02.803Z,0.98
2022-09-13T11:31:46.388Z,0.60
2022-09-13T11:34:25.757Z,1.38
2022-09-13T11:40:18.813Z,0.90
2022-09-13T11:46:39.931Z,0.90
2022-09-13T11:59:55.079Z,1.05
2022-09-13T12:02:41.727Z,1.10
2022-09-13T12:05:24.012Z,1.10
2022-09-13T12:08:00.987Z,0.70
2022-09-13T12:30:59.984Z,1.15
2022-09-13T14:49:26.966Z,1.15
2022-09-13T14:51:58.591Z,0.90
2022-09-13T14:54:38.408Z,1.35
2022-09-13T14:57:39.953Z,1.20
2022-09-13T15:00:21.933Z,1.30
2022-09-13T15:02:52.005Z,0.77
2022-09-13T15:05:24.173Z,1.05
2022-09-13T15:07:52.760Z,0.95
2022-09-13T15:10:25.845Z,1.25
2022-09-13T15:13:03.603Z,1.20
2022-09-13T15:15:45.244Z,1.10
2022-09-13T15:21:16.626Z,1.27
2022-09-13T15:23:55.660Z,1.33
2022-09-13T15:26:30.717Z,1.25
2022-09-13T15:29:23.713Z,0.93
2022-09-13T15:31:50.752Z,0.95
2022-09-13T15:34:19.004Z,1.25
2022-09-13T15:37:14.633Z,1.13
2022-09-13T15:45:50.132Z,1.70
2022-09-13T15:51:14.611Z,1.13
2022-09-13T16:32:35.204Z,0.63
2022-09-13T17:47:06.885Z,0.90
2022-09-13T17:49:34.708Z,0.77
2022-09-13T17:52:03.464Z,0.75
2022-09-13T17:54:30.514Z,1.13
2022-09-13T17:57:02.919Z,1.10
2022-09-13T17:59:32.142Z,2.33
2022-09-13T18:02:06.101Z,1.38
2022-09-13T18:04:34.519Z,1.00
2022-09-13T18:07:02.589Z,0.85
2022-09-13T18:09:30.508Z,1.23
2022-09-13T18:11:58.499Z,1.38
2022-09-13T18:14:27.820Z,1.00
2022-09-13T18:19:50.576Z,2.35
2022-09-13T18:22:22.541Z,1.20
2022-09-13T18:24:50.699Z,1.05
2022-09-13T18:27:23.938Z,0.98
2022-09-13T18:29:50.594Z,1.38
2022-09-13T18:32:42.556Z,1.33
2022-09-13T18:35:10.973Z,1.50
2022-09-13T18:37:38.593Z,2.05
2022-09-13T18:40:14.013Z,1.83
2022-09-13T18:42:45.035Z,1.25
2022-09-13T18:45:12.693Z,1.10
2022-09-13T18:47:40.567Z,1.90
2022-09-13T18:50:11.663Z,1.30
2022-09-13T18:52:41.006Z,1.00
2022-09-13T18:55:09.254Z,0.98
2022-09-13T18:57:36.605Z,1.98
2022-09-13T19:00:05.691Z,1.42
2022-09-13T19:02:32.996Z,1.00
2022-09-13T19:05:03.385Z,1.27
2022-09-13T19:07:35.569Z,1.08
2022-09-13T19:10:02.825Z,1.20
2022-09-13T19:12:31.040Z,0.75
2022-09-13T19:17:54.675Z,1.17
2022-09-13T19:20:23.064Z,1.38
2022-09-13T19:22:52.671Z,1.25
2022-09-13T19:25:22.853Z,0.73
2022-09-13T19:27:54.758Z,0.95
2022-09-13T19:30:22.912Z,1.02
2022-09-13T19:32:50.914Z,1.00
2022-09-13T19:35:18.955Z,1.55
2022-09-13T19:37:46.969Z,1.10
2022-09-13T19:40:15.268Z,1.27
2022-09-13T19:42:47.907Z,0.77
2022-09-13T19:45:17.027Z,0.98
2022-09-13T19:50:45.065Z,0.80
2022-09-13T19:53:13.930Z,1.52
2022-09-13T19:55:45.573Z,1.42
2022-09-13T19:58:21.177Z,0.80
2022-09-13T20:00:48.787Z,1.40
2022-09-13T20:03:16.813Z,0.98
2022-09-13T20:05:44.799Z,0.77
2022-09-13T20:08:12.677Z,0.80
2022-09-13T20:10:40.528Z,0.95
2022-09-13T20:13:08.701Z,0.90
2022-09-13T20:15:38.738Z,0.75
2022-09-13T20:18:13.124Z,0.90
2022-09-13T20:20:48.722Z,0.73
2022-09-13T20:23:25.551Z,1.20
2022-09-13T20:25:52.579Z,0.90
2022-09-13T20:28:20.726Z,0.70
2022-09-13T20:30:56.360Z,0.60
2022-09-13T20:33:24.769Z,0.88
2022-09-13T20:35:53.322Z,0.82
2022-09-13T20:38:21.085Z,1.23
2022-09-13T20:40:54.514Z,0.98
2022-09-13T20:43:22.733Z,1.20
2022-09-13T20:45:57.212Z,1.70
2022-09-13T20:48:25.269Z,1.48
2022-09-13T20:50:57.651Z,1.20
2022-09-13T20:53:24.632Z,0.80
2022-09-13T20:55:52.919Z,0.80
2022-09-13T21:04:14.625Z,0.77
2022-09-13T21:07:05.246Z,0.98
2022-09-13T21:09:37.586Z,1.15
2022-09-13T21:12:08.056Z,0.70
2022-09-13T21:14:36.811Z,0.80
2022-09-13T21:17:06.718Z,0.90
2022-09-13T21:19:35.360Z,0.70
2022-09-13T21:22:03.369Z,0.90
2022-09-13T21:24:38.279Z,1.00
2022-09-13T21:27:07.061Z,0.70
2022-09-13T21:29:34.625Z,0.95
2022-09-13T21:32:02.944Z,0.90
2022-09-13T21:34:34.886Z,0.95
2022-09-13T21:37:04.378Z,1.17
2022-09-13T21:39:32.626Z,0.93
2022-09-13T21:42:00.597Z,0.95
2022-09-13T21:44:28.855Z,0.80
2022-09-13T21:49:48.534Z,1.27
2022-09-13T21:52:16.743Z,1.38
2022-09-13T21:54:44.599Z,0.90
2022-09-13T21:57:16.600Z,0.90
2022-09-13T21:59:44.703Z,1.00
2022-09-13T22:02:13.278Z,0.95
2022-09-13T22:04:44.552Z,1.10
2022-09-13T22:13:07.227Z,0.90
2022-09-13T22:18:17.178Z,1.00
2022-09-13T22:23:30.913Z,0.95
2022-09-13T22:26:07.971Z,1.10
2022-09-13T22:28:40.913Z,1.00
2022-09-13T22:31:16.987Z,0.60
2022-09-13T22:45:01.101Z,0.80
2022-09-13T22:47:54.654Z,1.00
2022-09-13T22:50:26.979Z,0.80
2022-09-13T22:55:47.364Z,1.27
2022-09-13T23:01:18.736Z,0.85
2022-09-13T23:12:22.975Z,1.17
2022-09-13T23:20:25.276Z,1.27
2022-09-13T23:22:59.252Z,1.10
2022-09-13T23:25:30.919Z,0.80
2022-09-13T23:27:59.114Z,1.13
2022-09-13T23:30:26.783Z,1.40
2022-09-13T23:33:18.615Z,1.35
2022-09-13T23:35:47.945Z,1.50
2022-09-13T23:38:14.796Z,1.60
2022-09-13T23:40:42.848Z,1.00
2022-09-13T23:43:10.754Z,1.02
2022-09-13T23:45:38.796Z,1.10
2022-09-13T23:48:06.658Z,1.02
2022-09-13T23:50:34.686Z,1.17
2022-09-13T23:53:03.350Z,0.95
2022-09-13T23:55:37.392Z,1.00
2022-09-13T23:58:06.391Z,1.20
